Weather observations for the past three days for
Marion / Wytheville
Metric (Imperial)
Date Time (edt) Wind (kph) Vis. (km) Weather Sky Cond. Temperature (ºC) Relative Humidity Wind Chill (°C) Heat Index (°C) Pressure Precipitation (cm)
Air Dwpt 6 hour altimeter (cm) sea level (mb) 1 hr 3 hr 6 hr
Max. Min.
02 11:55 NW 17 G 28 16.09 Fair CLR 10.7 -6.7 29% 76.17 0.0
02 11:35 W 7 16.09 Fair CLR 9.5 -6.5 32% 9 76.2 0.0
02 11:15 SW 6 16.09 Fair CLR 9.4 -4 39% 76.2 0.0
02 10:55 Calm 16.09 Fair CLR 8.2 -5.1 39% 76.2 0.0
02 10:35 NW 11 16.09 Fair CLR 7.8 -4.7 41% 6 76.2 0.0
02 10:15 N 11 16.09 Fair CLR 7 -5.7 40% 5 76.2 0.0
02 09:55 NW 13 16.09 Fair CLR 7 -4.7 43% 5 76.2 0.0
02 09:35 Calm 16.09 Fair CLR 6.5 -4.9 44% 76.23 0.0
02 09:15 Calm 16.09 Fair CLR 6.2 -4.8 46% 76.2 0.0
02 08:55 N 6 16.09 Fair CLR 5.9 -4.3 48% 76.23 0.0
02 08:35 NE 11 16.09 Fair CLR 5.6 -4.8 48% 3 76.2 0.0
02 08:15 Calm 16.09 Fair CLR 5.5 -5 47% 76.2 0.0
02 07:55 Calm 16.09 Partly Cloudy SCT055 5.5 -4.9 8.5 4 47% 76.2 0.0
02 07:35 W 6 16.09 Fair CLR 5.1 -4.1 52% 76.2 0.0
02 07:15 Calm 16.09 Fair CLR 5 -3.4 55% 76.17 0.0
02 06:55 Calm 16.09 Partly Cloudy SCT055 4.9 -3.4 55% 76.15 0.0
02 06:35 Calm 16.09 Partly Cloudy SCT055 4.7 -2.1 62% 76.15 0.0
02 06:15 Calm 16.09 Mostly Cloudy BKN055 5.5 -3.2 54% 76.15 0.0
02 05:55 NW 6 16.09 Overcast OVC049 5.6 -3 54% 76.15 0.0
02 05:35 NW 7 16.09 Overcast OVC049 6.1 -3.6 50% 5 76.2 0.0
02 05:15 NW 9 16.09 Overcast OVC049 6.2 -3.7 49% 5 76.2 0.0
02 04:55 W 11 16.09 Overcast OVC047 6.5 -2.8 52% 5 76.2 0.0
02 04:35 W 11 16.09 Overcast OVC047 6.5 -2.1 55% 5 76.2 0.0
02 04:15 W 11 16.09 Overcast SCT025 SCT032 OVC047 6.7 -1.6 56% 5 76.2 0.0
02 03:55 NW 13 16.09 Overcast BKN025 OVC030 7.2 1.2 66% 5 76.2 0.0
02 03:35 NW 6 16.09 Overcast OVC025 7.6 1.6 66% 76.15 0.0
02 03:15 NW 7 16.09 Overcast OVC029 7.7 1.5 65% 7 76.15 0.0
02 02:55 NW 9 16.09 Overcast BKN029 BKN034 OVC040 8 1.1 62% 7 76.15 0.0
02 02:35 NW 6 16.09 Overcast BKN029 OVC042 8.1 1.1 62% 76.15 0.0
02 02:15 N 6 16.09 Overcast OVC029 8.2 1.5 63% 76.2 0.0
02 01:55 N 7 16.09 Overcast BKN029 OVC035 8.5 1.5 13.9 8.5 62% 8 76.2 0.0
02 01:35 N 6 16.09 Overcast BKN033 BKN039 OVC047 8.6 1.8 63% 76.2 0.0
02 01:15 NW 7 16.09 Overcast SCT032 SCT037 OVC047 8.8 1.5 61% 8 76.2 0.0
02 00:55 Calm 16.09 Overcast SCT032 OVC045 9 1.7 61% 76.2 0.0
02 00:35 NW 7 16.09 Overcast BKN040 OVC047 9.2 1.5 59% 8 76.17 0.0
02 00:15 W 9 16.09 Overcast SCT039 OVC044 9.5 1.6 58% 8 76.2 0.0
01 23:55 W 9 16.09 Overcast OVC046 9.5 1.8 59% 8 76.2 0.0
01 23:35 NW 15 16.09 Overcast BKN050 BKN060 OVC070 9.6 2 59% 8 76.15 0.0
01 23:15 NW 11 16.09 Overcast BKN050 OVC070 9.9 2.9 62% 9 76.17 0.0
01 22:55 NW 7 16.09 Overcast SCT034 OVC050 10 3.2 63% 9 76.2 0.0
01 22:35 W 9 16.09 Overcast OVC060 10.5 3 60% 76.15 0.0
01 22:15 NW 15 16.09 Mostly Cloudy BKN060 11 2.5 56% 76.15 0.0
01 21:55 NW 15 G 28 16.09 Mostly Cloudy BKN060 11.7 1.9 51% 76.1 0.0
01 21:35 NW 13 G 28 16.09 Mostly Cloudy BKN065 BKN080 13 0.3 42% 76.05 0.0
01 21:15 W 17 16.09 Overcast BKN065 OVC080 13.5 -0.7 38% 76.02 0.0
01 20:55 W 11 16.09 Overcast OVC065 13.5 -0.9 37% 76.02 0.0
01 20:35 W 11 16.09 Overcast OVC065 13.5 -0.7 38% 75.97 0.0
01 20:15 W 11 16.09 Overcast OVC075 13.5 -1 37% 75.95 0.0
01 19:55 W 15 16.09 Mostly Cloudy BKN075 14 -2 17.6 14 33% 75.95 0.0
01 19:35 SW 13 16.09 Partly Cloudy SCT075 14.1 -2 33% 75.92 0.0
01 19:15 SW 17 G 26 16.09 Partly Cloudy SCT075 15 -2.7 30% 75.92 0.0
01 18:55 SW 15 16.09 Fair CLR 15.2 -3.2 28% 75.92 0.0
01 18:35 W 26 G 31 16.09 Fair CLR 15.5 -3.3 27% 75.92 0.0
01 18:15 SW 17 G 31 16.09 Fair CLR 16 -4.5 24% 75.92 0.0
01 17:55 SW 19 G 37 16.09 Fair CLR 16.6 -4.7 23% 75.92 0.0
01 17:35 W 26 16.09 Fair CLR 16.6 -4.4 24% 75.95 0.0
01 17:15 SW 22 G 35 16.09 Fair CLR 17 -4 24% 75.92 0.0
01 16:55 SW 26 G 37 16.09 Fair CLR 17.2 -3.8 24% 75.95 0.0
01 16:35 W 22 G 37 16.09 Fair CLR 17 -3.9 24% 75.95 0.0
01 16:15 SW 24 G 35 16.09 Fair CLR 17.1 -4.6 22% 75.97 0.0
01 15:55 W 20 G 43 16.09 Fair CLR 17.2 -2.9 25% 75.97 0.0
01 15:35 SW 17 G 35 16.09 Fair CLR 16.9 -2.7 26% 76 0.0
01 15:15 W 20 G 33 16.09 Fair CLR 17 -3.2 25% 76 0.0
01 14:55 SW 26 G 44 16.09 Fair CLR 16.9 -5.9 21% 76.02 0.0
01 14:35 SW 30 G 43 16.09 Fair CLR 17.1 -3.2 25% 76.02 0.0
01 13:55 W 22 G 39 16.09 Fair CLR 16.7 -1.4 16.8 4.1 29% 76.05 0.0
01 13:35 SW 17 G 31 16.09 Fair CLR 16.1 -1 31% 76.07 0.0
01 13:15 W 15 16.09 Fair CLR 15.6 -1.7 31% 76.07 0.0
01 12:55 W 22 G 30 16.09 Fair CLR 15.8 -2.6 28% 76.1 0.0
01 12:35 NW 7 16.09 Fair CLR 14.8 -4.5 26% 76.12 0.0
01 12:15 Calm 16.09 Fair CLR 14.8 -0.1 36% 76.12 0.0
01 11:55 Calm 16.09 Fair CLR 14.1 -0.3 37% 76.15 0.0
01 11:35 Calm 16.09 Fair CLR 12.8 -1.5 37% 76.15 0.0
01 11:15 E 9 16.09 Fair CLR 12.4 -0.6 41% 76.17 0.0
01 10:55 E 9 16.09 Partly Cloudy SCT110 12.3 0.5 45% 76.2 0.0
01 10:35 NE 9 16.09 Overcast OVC120 10.9 -0.6 45% 76.2 0.0
01 10:15 E 9 16.09 Overcast OVC120 10.3 0.6 51% 76.2 0.0
01 09:55 E 9 16.09 Overcast OVC120 9.2 0.4 54% 8 76.2 0.0
01 09:35 NE 9 16.09 Mostly Cloudy BKN120 8.6 1.3 60% 7 76.23 0.0
01 09:15 NE 11 16.09 Partly Cloudy SCT120 7.5 1.1 64% 6 76.23 0.0
01 08:55 E 11 16.09 Fair CLR 6.6 1.2 69% 5 76.23 0.0
01 08:35 NE 11 16.09 Fair CLR 5.6 1.1 73% 3 76.23 0.0
01 08:15 NE 9 16.09 Fair CLR 4.8 1.2 78% 3 76.23 0.0
01 07:55 NE 6 16.09 Fair CLR 3.8 1.5 3.8 1.7 85% 76.23 0.0
01 07:35 Calm 16.09 Fair CLR 2.3 1.1 92% 76.23 0.0
01 07:15 Calm 16.09 Fair CLR 2 0.7 91% 76.23 0.0
01 06:55 Calm 16.09 Fair CLR 1.8 0.6 92% 76.23 0.0
01 06:35 Calm 16.09 Fair CLR 2.2 1 92% 76.2 0.0
01 06:15 Calm 16.09 Fair CLR 2.2 1.1 93% 76.2 0.0
01 05:55 Calm 16.09 Fair CLR 2.7 1.5 92% 76.17 0.0
01 05:35 Calm 16.09 Fair CLR 3 1.7 91% 76.17 0.0
01 05:15 Calm 16.09 Fair CLR 3.3 1.3 87% 76.15 0.0
01 04:55 Calm 16.09 Fair CLR 3.6 1.1 84% 76.2 0.0
01 04:35 Calm 16.09 Fair CLR 3.7 1 83% 76.2 0.0
01 04:15 NW 6 16.09 Fair CLR 3.6 1.5 86% 76.2 0.0
01 03:55 Calm 16.09 Fair CLR 3.5 1.7 88% 76.2 0.0
01 03:35 Calm 16.09 Fair CLR 3.5 1.6 88% 76.2 0.0
01 03:15 Calm 16.09 Fair CLR 3.5 1.6 88% 76.23 0.0
01 02:55 Calm 16.09 Fair CLR 3.5 1.1 84% 76.23 0.0
01 02:35 Calm 16.09 Fair CLR 3.4 1.3 86% 76.25 0.0
01 02:15 Calm 16.09 Fair CLR 3.1 1.1 87% 76.25 0.0
01 01:55 Calm 16.09 Fair CLR 3.5 1 11.4 3.1 84% 76.25 0.0
01 01:35 Calm 16.09 Fair CLR 3.3 0.9 84% 76.25 0.0
01 01:15 Calm 16.09 Fair CLR 3.3 1 85% 76.28 0.0
01 00:55 Calm 16.09 Fair CLR 4 0.9 80% 76.25 0.0
01 00:35 Calm 16.09 Fair CLR 4.4 0.6 77% 76.28 0.0
01 00:15 Calm 16.09 Fair CLR 4.9 0.4 73% 76.28 0.0
30 23:55 Calm 16.09 Fair CLR 6.2 0.1 65% 76.28 0.0
30 23:35 Calm 16.09 Fair CLR 5.9 0.6 69% 76.28 0.0
30 23:15 N 9 16.09 Fair CLR 7.4 0 60% 6 76.25 0.0
30 22:55 Calm 16.09 Fair CLR 7.8 -0.1 58% 76.28 0.0
30 22:35 Calm 16.09 Fair CLR 8.2 -0.1 56% 76.28 0.0
30 22:15 NW 9 16.09 Fair CLR 7.8 -0.2 57% 6 76.25 0.0
30 21:55 NW 7 16.09 Fair CLR 9 -1 50% 8 76.23 0.0
30 21:35 Calm 16.09 Fair CLR 9.5 -1.5 47% 76.2 0.0
30 21:15 Calm 16.09 Fair CLR 9.7 -1.8 45% 76.17 0.0
30 20:55 Calm 16.09 Fair CLR 10 -2 43% 76.15 0.0
30 20:35 NW 11 16.09 Fair CLR 10.5 -2.1 42% 76.12 0.0
30 20:15 NW 7 16.09 Fair CLR 10.8 -2.3 40% 76.1 0.0
30 19:55 NW 9 16.09 Fair CLR 11.5 -2.7 14.7 11.5 37% 76.1 0.0
30 19:35 NW 17 16.09 Fair CLR 12.3 -3.3 34% 76.07 0.0
30 19:15 N 17 G 26 16.09 Fair CLR 12.7 -3.8 32% 76.05 0.0
30 18:55 N 19 G 28 16.09 Partly Cloudy SCT060 13.1 -3.4 32% 76.05 0.0
30 18:35 NW 15 16.09 Partly Cloudy SCT060 13.5 -3.4 31% 76.05 0.0
30 18:15 W 24 G 31 16.09 Fair CLR 14 -2.2 33% 76.02 0.0
30 17:55 W 15 G 33 16.09 Fair CLR 13.8 -2.4 33% 76.02 0.0
30 17:35 W 22 G 35 16.09 Fair CLR 14.2 -2 33% 76.02 0.0
30 17:15 W 24 G 33 16.09 Fair CLR 14.4 -1.9 33% 76.02 0.0
30 16:55 W 20 G 35 16.09 Fair CLR 14.4 -2 32% 76 0.0
30 16:35 W 28 G 37 16.09 Fair CLR 14.3 -3.5 29% 76.02 0.0
30 16:15 NW 13 G 37 16.09 Fair CLR 14.1 -3.3 30% 76.02 0.0
30 15:55 W 13 G 33 16.09 Fair CLR 14.3 -1.8 33% 76.02 0.0
30 15:35 W 22 G 37 16.09 Fair CLR 14.3 -2.9 31% 76.05 0.0
30 15:15 W 15 G 41 16.09 Fair CLR 14.1 -4.2 28% 76.05 0.0
30 14:55 NW 17 G 33 16.09 Fair CLR 14.3 -2.3 32% 76.02 0.0
30 14:35 W 17 G 35 16.09 Partly Cloudy SCT050 14.5 -0.8 35% 76.02 0.0
30 14:15 W 31 G 43 16.09 Partly Cloudy SCT050 14 -1.8 34% 76.02 0.0
30 13:55 NW 13 G 35 16.09 Fair CLR 14.3 0.7 14.3 9.7 40% 76.05 0.0
30 13:35 W 20 G 35 16.09 Fair CLR 13.7 -0.3 38% 76.05 0.0
30 13:15 W 17 G 33 16.09 Fair CLR 13.7 0.3 40% 76.05 0.0
30 12:55 NW 22 G 44 16.09 Partly Cloudy SCT043 13 -0.3 40% 76.05 0.0
30 12:35 W 17 G 31 16.09 Partly Cloudy SCT043 SCT050 13.1 1.7 46% 0 0.0
30 12:15 W 26 G 37 16.09 Partly Cloudy SCT040 SCT047 13.2 2.2 48% 0 0.0
30 11:55 W 20 G 37 16.09 Partly Cloudy SCT038 13.1 1.9 47% 76.07 0.0
30 11:35 NW 19 G 33 16.09 Partly Cloudy SCT036 12.8 2.4 49% 0 0.0
30 11:15 NW 20 G 31 16.09 Fair CLR 12.4 2.8 52% 76.07 0.0
30 10:55 NW 20 G 31 16.09 Partly Cloudy SCT027 SCT034 11.8 3.2 56% 76.07 0.0
30 10:35 W 17 G 28 16.09 Mostly Cloudy BKN027 BKN034 BKN110 11.2 3.7 60% 76.07 0.0
30 10:15 W 20 G 35 16.09 Mostly Cloudy BKN025 BKN032 BKN110 11.1 4 62% 76.07 0.0
30 09:55 NW 19 G 33 16.09 Mostly Cloudy BKN025 11.2 4.3 63% 76.07 0.0
30 09:35 NW 20 G 35 16.09 Mostly Cloudy BKN023 10.9 4.5 65% 76.02 0.0
30 09:15 NW 20 G 28 16.09 Partly Cloudy SCT023 10.4 4.6 68% 76.02 0.0
30 08:55 NW 17 G 31 16.09 Fair CLR 9.8 4.9 72% 8 76.02 0.0
30 08:35 NW 15 G 33 16.09 Partly Cloudy SCT028 SCT037 SCT042 10.5 5.2 70% 76.05 0.0
30 08:15 NW 17 G 30 16.09 Mostly Cloudy SCT026 SCT034 BKN040 10 5 71% 8 76.05 0.0
30 07:55 W 15 16.09 Partly Cloudy SCT022 SCT039 SCT046 9.9 5.3 10.9 9.7 73% 8 76.05 0.0
30 07:35 W 15 16.09 Partly Cloudy SCT022 SCT042 10 5.2 72% 8 76 0.0
30 07:15 W 17 G 30 16.09 Mostly Cloudy SCT022 SCT035 BKN041 9.8 5.5 75% 8 75.97 0.0
30 06:55 W 15 16.09 Mostly Cloudy SCT019 SCT028 BKN034 9.8 6 77% 8 75.95 0.0
30 06:35 W 17 16.09 Overcast BKN019 OVC028 10.1 6.5 79% 75.95 0.0
30 06:15 W 11 16.09 Overcast BKN021 OVC028 10.2 6.6 79% 75.9 0.0
30 05:55 W 17 G 26 16.09 Overcast OVC025 10.5 6.1 74% 75.87 0.0
30 05:35 W 17 G 28 16.09 Overcast BKN021 OVC030 10.5 6.5 77% 75.87 0.0
30 05:15 W 7 16.09 Overcast BKN019 OVC026 10.6 6.9 78% 75.84 0.0
30 04:55 W 15 G 33 16.09 Mostly Cloudy BKN019 BKN026 10.6 7 79% 75.84 0.0
30 04:35 W 24 G 35 16.09 Partly Cloudy SCT019 10.7 6.8 77% 75.84 0.0
30 04:15 W 15 G 39 16.09 Partly Cloudy SCT021 10.9 6.7 76% 75.87 0.0
30 03:55 W 19 G 26 16.09 Partly Cloudy SCT021 10.5 7 79% 75.9 0.0
30 03:35 W 17 16.09 Partly Cloudy SCT021 10 6.8 81% 8 75.92 0.0
30 03:15 W 17 16.09 Partly Cloudy SCT021 10 6.5 79% 8 75.92 0.0
30 02:55 SW 19 G 28 16.09 Fair CLR 10.2 6.7 79% 75.92 0.0
30 02:35 SW 17 16.09 Fair CLR 10.2 6.5 78% 75.92 0.0
30 02:15 W 17 G 30 16.09 Fair CLR 10.3 6.7 79% 75.97 0.0
30 01:55 W 17 G 30 16.09 Fair CLR 10.7 6.6 16.7 10.5 76% 76 0.0
30 01:35 W 26 G 37 16.09 Fair CLR 10.8 6.7 76% 76 0.0
30 01:15 W 19 G 28 16.09 Fair CLR 10.7 6.8 77% 76.02 0.0
30 00:55 W 17 16.09 Fair CLR 10.8 6.1 73% 76.02 0.0
30 00:35 W 22 16.09 Fair CLR 11.2 6.1 71% 76.02 0.0
30 00:15 W 15 G 26 16.09 Fair CLR 11.6 6.2 70% 76.05 0.0
29 23:55 W 17 G 31 16.09 Partly Cloudy SCT027 12 6 67% 76.05 0.0
29 23:35 SW 13 16.09 Partly Cloudy SCT027 12.2 6.6 69% 76.05 0.0
29 23:15 NW 9 G 28 16.09 Fair CLR 12.8 7.1 69% 76.02 0.0
29 22:55 W 11 G 28 16.09 Partly Cloudy SCT022 13.6 8.9 73% 76.02 0.0
29 22:35 W 17 16.09 Partly Cloudy SCT024 14.2 9.4 73% 76.02 0.0
29 22:15 W 15 16.09 Partly Cloudy SCT025 14.5 9.6 73% 76 0.0
29 21:55 W 24 G 35 16.09 Fair CLR 15.1 9.5 69% 75.97 0.0
29 21:35 W 15 G 30 16.09 Partly Cloudy SCT027 15 10 72% 75.95 0.0
29 21:15 W 22 G 33 16.09 Partly Cloudy SCT027 15.1 10.2 73% 75.95 0.0
29 20:55 W 30 G 37 16.09 Partly Cloudy SCT027 SCT032 SCT041 15.6 10.7 73% 75.92 0.0
29 20:35 W 20 G 39 16.09 Partly Cloudy SCT027 SCT034 15.8 11 73% 75.9 0.0
29 20:15 W 30 G 41 16.09 Partly Cloudy SCT080 16.5 10.5 68% 75.87 0.0
29 19:55 W 22 G 46 16.09 Mostly Cloudy BKN080 16.8 10.5 20 16 67% 75.87 0.0
29 19:35 NW 31 G 44 16.09 Mostly Cloudy SCT080 BKN090 17 10.9 68% 75.87 0.0
29 19:15 W 24 G 44 16.09 Partly Cloudy SCT029 SCT055 SCT080 17.3 10.9 66% 75.84 0.0
29 18:55 W 22 G 50 16.09 Mostly Cloudy SCT026 SCT032 BKN043 17.6 12.6 73% 75.82 0.0
29 18:35 W 26 G 37 16.09 Rain BKN026 BKN032 OVC040 17.6 13 75% 75.82 0.0
29 18:15 W 28 G 33 16.09 Light Rain BKN032 BKN043 OVC080 18.2 13.3 73% 75.79 0.0
29 17:55 W 33 G 43 16.09 Mostly Cloudy and Breezy SCT035 SCT060 BKN085 18.5 12.8 70% 75.77 0.0
29 17:35 W 28 G 46 16.09 Partly Cloudy SCT030 SCT036 SCT049 19.7 13.1 66% 75.77 0.0
29 17:15 W 33 G 44 16.09 Mostly Cloudy and Breezy SCT029 SCT038 BKN080 19.3 13.5 69% 75.77 0.0
29 16:55 W 35 G 52 16.09 Partly Cloudy and Breezy SCT016 SCT031 SCT050 19.4 14 71% 75.79 0.0
29 16:35 SW 26 G 37 16.09 Mostly Cloudy BKN018 BKN025 BKN030 18.5 14.8 79% 75.79 0.0
29 16:15 SW 20 G 39 16.09 Overcast OVC018 17.9 14.4 80% 75.82 0.0
29 15:55 W 15 G 33 16.09 Overcast BKN016 BKN024 OVC049 18 15 83% 75.84 0.0
29 15:35 W 19 G 31 16.09 Overcast SCT014 BKN020 OVC049 18.1 15.1 83% 75.9 0.0
29 15:15 SW 26 G 31 16.09 Overcast SCT013 BKN018 OVC025 17.2 14.6 85% 75.9 0.0
29 14:55 W 19 G 30 16.09 Overcast BKN013 OVC023 17.2 14.9 86% 75.9 0.0
29 14:35 W 17 G 28 16.09 Overcast BKN014 OVC021 16.2 14.7 91% 75.92 0.0
29 14:15 W 19 G 37 16.09 Overcast SCT009 BKN013 OVC031 16.5 14.8 90% 75.92 0.0
29 13:55 SW 17 16.09 Overcast SCT007 BKN012 OVC033 16.8 15.3 16.8 13.8 91% 75.95 0.0 0.03 1.07
29 13:35 W 24 8.05 Light Drizzle BKN011 BKN016 OVC023 15.5 14.1 91% 75.97 0.0 0.03
29 13:15 SW 13 G 26 16.09 Rain SCT011 BKN021 OVC070 15.9 14.5 91% 76 0.0 0.03
29 12:55 SW 13 11.27 Light Rain SCT010 BKN017 OVC070 16.2 15 93% 76.02 0.0
29 12:35 W 20 G 28 11.27 Rain BKN008 OVC015 15.7 14.4 92% 76.05 0.0
29 12:15 W 22 G 28 6.44 Light Rain BKN008 OVC012 15.2 14 93% 76.07 0.0
Date Time (edt) Wind (kph) Vis. (km) Weather Sky Cond. Air Dwpt Max. Min. Relative Humidity Wind Chill (°C) Heat Index (°C) altimeter (cm) sea level (mb) 1 hr 3 hr 6 hr
6 hour
Temperature (ºC) Pressure Precipitation (cm)